createdAt,value
2023-03-02T00:02:29.739Z,101307.73
2023-03-02T00:07:38.262Z,101304.31
2023-03-02T00:13:52.353Z,101307.67
2023-03-02T00:19:44.971Z,101307.15
2023-03-02T00:24:53.127Z,101303.48
2023-03-02T00:30:35.935Z,101300.22
2023-03-02T00:36:03.103Z,101303.29
2023-03-02T00:41:29.389Z,101294.16
2023-03-02T00:47:03.042Z,101290.16
2023-03-02T00:52:08.666Z,101293.00
2023-03-02T00:57:12.072Z,101291.80
2023-03-02T01:02:30.325Z,101294.01
2023-03-02T01:07:42.342Z,101290.60
2023-03-02T01:13:06.586Z,101286.52
2023-03-02T01:18:33.065Z,101281.96
2023-03-02T01:23:46.748Z,101274.34
2023-03-02T01:28:55.576Z,101270.98
2023-03-02T01:34:01.751Z,101266.33
2023-03-02T01:39:07.572Z,101261.08
2023-03-02T01:44:57.459Z,101251.19
2023-03-02T01:51:11.265Z,101248.45
2023-03-02T01:56:31.329Z,101252.61
2023-03-02T02:02:17.740Z,101251.56
2023-03-02T02:07:21.823Z,101240.29
2023-03-02T02:12:38.605Z,101247.64
2023-03-02T02:18:13.458Z,101248.39
2023-03-02T02:24:09.776Z,101261.08
2023-03-02T02:29:23.037Z,101261.45
2023-03-02T02:34:42.656Z,101259.85
2023-03-02T02:39:49.101Z,101258.10
2023-03-02T02:45:44.546Z,101250.08
2023-03-02T02:50:48.271Z,101235.41
2023-03-02T02:56:00.275Z,101233.30
2023-03-02T03:01:07.151Z,101233.41
2023-03-02T03:06:49.176Z,101232.51
2023-03-02T03:12:01.423Z,101226.88
2023-03-02T03:17:13.926Z,101224.85
2023-03-02T03:22:26.454Z,101227.68
2023-03-02T03:27:30.394Z,101217.81
2023-03-02T03:32:54.041Z,101219.55
2023-03-02T03:37:57.769Z,101218.36
2023-03-02T03:43:04.961Z,101215.88
2023-03-02T03:48:08.860Z,101216.04
2023-03-02T03:53:15.577Z,101216.55
2023-03-02T03:58:24.992Z,101220.16
2023-03-02T04:04:11.393Z,101215.71
2023-03-02T04:09:38.142Z,101211.35
2023-03-02T04:14:54.350Z,101203.55
2023-03-02T04:19:58.801Z,101202.86
2023-03-02T04:25:24.519Z,101208.70
2023-03-02T04:30:33.255Z,101215.75
2023-03-02T04:35:46.676Z,101214.16
2023-03-02T04:41:03.214Z,101213.77
2023-03-02T04:46:15.771Z,101209.58
2023-03-02T04:51:32.630Z,101202.39
2023-03-02T04:57:17.371Z,101205.74
2023-03-02T05:02:33.893Z,101209.80
2023-03-02T05:07:44.796Z,101215.79
2023-03-02T05:13:08.966Z,101218.27
2023-03-02T05:18:14.865Z,101226.90
2023-03-02T05:23:34.794Z,101225.83
2023-03-02T05:28:38.749Z,101224.75
2023-03-02T05:33:55.303Z,101231.45
2023-03-02T05:39:42.734Z,101232.49
2023-03-02T05:45:06.385Z,101235.17
2023-03-02T05:50:53.365Z,101237.04
2023-03-02T05:56:22.468Z,101241.07
2023-03-02T06:01:36.881Z,101240.55
2023-03-02T06:06:47.613Z,101246.65
2023-03-02T06:12:01.586Z,101253.20
2023-03-02T06:17:29.206Z,101257.65
2023-03-02T06:22:53.153Z,101261.96
2023-03-02T06:28:02.101Z,101269.76
2023-03-02T06:33:21.318Z,101278.70
2023-03-02T06:38:27.784Z,101282.73
2023-03-02T06:44:01.728Z,101288.45
2023-03-02T06:49:19.341Z,101290.04
2023-03-02T06:54:24.056Z,101285.09
2023-03-02T06:59:27.761Z,101287.61
2023-03-02T07:04:48.947Z,101289.30
2023-03-02T07:09:52.320Z,101289.58
2023-03-02T07:14:55.860Z,101286.80
2023-03-02T07:19:59.512Z,101282.55
2023-03-02T07:25:13.690Z,101276.61
2023-03-02T07:30:32.633Z,101273.86
2023-03-02T07:35:36.073Z,101269.51
2023-03-02T07:40:43.071Z,101274.09
2023-03-02T07:45:46.668Z,101277.77
2023-03-02T07:50:50.035Z,101276.39
2023-03-02T07:56:10.845Z,101273.09
2023-03-02T08:01:14.225Z,101273.33
2023-03-02T08:06:27.543Z,101262.56
2023-03-02T08:11:51.143Z,101264.93
2023-03-02T08:17:10.704Z,101258.91
2023-03-02T08:22:21.456Z,101252.34
2023-03-02T08:27:32.837Z,101254.33
2023-03-02T08:33:07.472Z,101249.43
2023-03-02T08:38:13.705Z,101254.25
2023-03-02T08:43:17.423Z,101256.33
2023-03-02T08:48:21.724Z,101253.94
2023-03-02T08:53:49.828Z,101250.29
2023-03-02T08:59:14.185Z,101254.93
2023-03-02T09:05:01.419Z,101253.83
2023-03-02T09:10:10.457Z,101258.20
2023-03-02T09:15:13.938Z,101254.19
2023-03-02T09:20:32.283Z,101250.52
2023-03-02T09:25:35.656Z,101246.67
2023-03-02T09:30:42.129Z,101248.73
2023-03-02T09:35:46.790Z,101249.80
2023-03-02T09:41:04.060Z,101252.82
2023-03-02T09:46:34.935Z,101249.93
2023-03-02T09:52:04.270Z,101248.02
2023-03-02T09:57:36.330Z,101246.66
2023-03-02T10:03:22.688Z,101241.95
2023-03-02T10:08:34.478Z,101236.39
2023-03-02T10:13:56.123Z,101233.30
2023-03-02T10:20:00.217Z,101228.58
2023-03-02T10:26:09.998Z,101221.63
2023-03-02T10:31:52.967Z,101208.89
2023-03-02T10:37:02.353Z,101205.70
2023-03-02T10:42:23.911Z,101201.89
2023-03-02T10:47:29.100Z,101199.61
2023-03-02T10:52:32.624Z,101199.55
2023-03-02T10:57:38.839Z,101193.55
2023-03-02T11:02:53.609Z,101189.95
2023-03-02T11:08:11.562Z,101192.52
2023-03-02T11:13:28.584Z,101186.55
2023-03-02T11:18:46.104Z,101182.59
2023-03-02T11:24:21.894Z,101179.88
2023-03-02T11:29:45.696Z,101171.35
2023-03-02T11:35:00.603Z,101159.93
2023-03-02T11:40:16.437Z,101167.39
2023-03-02T11:45:30.575Z,101170.34
2023-03-02T11:50:41.298Z,101169.66
2023-03-02T11:55:48.648Z,101164.67
2023-03-02T12:00:55.875Z,101161.00
2023-03-02T12:06:11.123Z,101158.80
2023-03-02T12:11:20.404Z,101155.09
2023-03-02T12:16:38.896Z,101149.80
2023-03-02T12:22:05.781Z,101146.27
2023-03-02T12:27:20.979Z,101142.05
2023-03-02T12:32:33.491Z,101135.72
2023-03-02T12:38:19.294Z,101134.77
2023-03-02T12:43:22.639Z,101131.41
2023-03-02T12:49:30.294Z,101123.35
2023-03-02T12:54:36.928Z,101117.20
2023-03-02T12:59:40.711Z,101114.54
2023-03-02T13:05:07.438Z,101107.93
2023-03-02T13:11:03.520Z,101100.80
2023-03-02T13:16:32.546Z,101101.39
2023-03-02T13:22:12.477Z,101101.86
2023-03-02T13:28:01.622Z,101098.05
2023-03-02T13:33:26.869Z,101090.73
2023-03-02T13:38:40.442Z,101087.05
2023-03-02T13:44:21.512Z,101089.27
2023-03-02T13:49:37.833Z,101082.27
2023-03-02T13:54:44.116Z,101073.45
2023-03-02T13:59:48.309Z,101074.00
2023-03-02T14:05:22.861Z,101062.16
2023-03-02T14:10:50.550Z,101053.61
2023-03-02T14:15:53.979Z,101043.53
2023-03-02T14:21:00.231Z,101040.38
2023-03-02T14:26:34.930Z,101030.02
2023-03-02T14:32:07.413Z,101023.30
2023-03-02T14:37:16.879Z,101019.14
2023-03-02T14:42:21.520Z,101012.26
2023-03-02T14:48:05.358Z,101009.46
2023-03-02T14:53:30.735Z,101010.55
2023-03-02T14:58:37.720Z,101005.27
2023-03-02T15:03:41.105Z,101004.77
2023-03-02T15:08:49.230Z,100998.91
2023-03-02T15:13:52.696Z,100992.45
2023-03-02T15:18:59.051Z,100993.69
2023-03-02T15:24:02.583Z,100993.33
2023-03-02T15:29:15.141Z,100989.82
2023-03-02T15:34:18.613Z,100988.39
2023-03-02T15:39:27.700Z,100988.17
2023-03-02T15:44:38.391Z,100987.09
2023-03-02T15:50:02.251Z,100985.17
2023-03-02T15:55:06.028Z,100982.52
2023-03-02T16:00:35.308Z,100982.31
2023-03-02T16:05:38.801Z,100977.50
2023-03-02T16:11:02.480Z,100972.50
2023-03-02T16:16:25.459Z,100967.66
2023-03-02T16:21:29.110Z,100972.09
2023-03-02T16:26:53.597Z,100970.27
2023-03-02T16:32:06.670Z,100974.38
2023-03-02T16:37:20.311Z,100968.11
2023-03-02T16:42:23.770Z,100968.34
2023-03-02T16:47:49.022Z,100975.55
2023-03-02T16:53:15.216Z,100982.10
2023-03-02T16:58:21.198Z,100981.27
2023-03-02T17:03:40.993Z,100974.70
2023-03-02T17:08:54.622Z,100975.77
2023-03-02T17:13:57.867Z,100978.80
2023-03-02T17:19:08.802Z,100979.42
2023-03-02T17:24:45.473Z,100977.56
2023-03-02T17:30:01.275Z,100969.18
2023-03-02T17:35:17.074Z,100969.54
2023-03-02T17:40:20.616Z,100967.25
2023-03-02T17:45:44.569Z,100965.56
2023-03-02T17:52:08.672Z,100968.55
2023-03-02T17:57:55.596Z,100964.82
2023-03-02T18:03:45.312Z,100964.92
2023-03-02T18:08:50.708Z,100960.79
2023-03-02T18:14:05.675Z,100960.79
2023-03-02T18:19:17.477Z,100953.82
2023-03-02T18:24:20.813Z,100955.11
2023-03-02T18:29:27.707Z,100955.14
2023-03-02T18:34:53.421Z,100960.40
2023-03-02T18:40:00.597Z,100961.88
2023-03-02T18:45:27.477Z,100964.05
2023-03-02T18:50:39.909Z,100961.14
2023-03-02T18:55:45.889Z,100956.36
2023-03-02T19:01:12.697Z,100955.48
2023-03-02T19:06:16.634Z,100955.23
2023-03-02T19:11:30.536Z,100955.67
2023-03-02T19:16:40.371Z,100950.39
2023-03-02T19:21:54.000Z,100948.10
2023-03-02T19:26:57.431Z,100943.33
2023-03-02T19:32:06.515Z,100941.64
2023-03-02T19:37:33.299Z,100943.35
2023-03-02T19:43:22.985Z,100942.59
2023-03-02T19:49:06.851Z,100944.91
2023-03-02T19:54:10.248Z,100943.23
2023-03-02T19:59:13.631Z,100939.90
2023-03-02T20:04:18.264Z,100942.85
2023-03-02T20:09:21.825Z,100947.21
2023-03-02T20:14:36.366Z,100946.22
2023-03-02T20:19:39.720Z,100946.21
2023-03-02T20:24:43.803Z,100948.70
2023-03-02T20:29:49.863Z,100943.48
2023-03-02T20:35:23.841Z,100940.73
2023-03-02T20:40:28.219Z,100939.16
2023-03-02T20:45:46.840Z,100930.39
2023-03-02T20:50:53.405Z,100925.56
2023-03-02T20:56:07.245Z,100919.70
2023-03-02T21:01:39.752Z,100914.27
2023-03-02T21:07:06.693Z,100910.49
2023-03-02T21:12:30.743Z,100910.93
2023-03-02T21:17:34.466Z,100906.17
2023-03-02T21:23:41.654Z,100905.23
2023-03-02T21:30:13.019Z,100901.89
2023-03-02T21:35:40.936Z,100888.67
2023-03-02T21:40:47.099Z,100878.03
2023-03-02T21:45:51.589Z,100872.59
2023-03-02T21:50:58.402Z,100870.64
2023-03-02T21:56:10.713Z,100872.37
2023-03-02T22:01:26.147Z,100868.37
2023-03-02T22:06:54.682Z,100867.80
2023-03-02T22:12:18.527Z,100867.23
2023-03-02T22:18:15.762Z,100861.55
2023-03-02T22:24:06.761Z,100860.65
2023-03-02T22:29:52.357Z,100861.53
2023-03-02T22:35:22.125Z,100861.96
2023-03-02T22:40:35.696Z,100857.60
2023-03-02T22:46:15.574Z,100860.71
2023-03-02T22:52:10.440Z,100856.32
2023-03-02T22:57:57.535Z,100850.88
2023-03-02T23:03:25.303Z,100848.30
2023-03-02T23:08:31.738Z,100840.66
2023-03-02T23:13:40.688Z,100840.92
2023-03-02T23:18:57.484Z,100827.02
2023-03-02T23:24:10.842Z,100825.02
2023-03-02T23:29:48.518Z,100818.04
2023-03-02T23:35:05.133Z,100818.90
2023-03-02T23:40:12.098Z,100816.65
2023-03-02T23:45:35.570Z,100809.92
2023-03-02T23:51:21.584Z,100810.17
2023-03-02T23:56:45.069Z,100806.88
